createdAt,value
2018-04-27T00:01:53.823Z,88.60
2018-04-27T00:04:22.954Z,88.43
2018-04-27T00:06:51.309Z,88.36
2018-04-27T00:09:19.678Z,88.57
2018-04-27T00:11:48.045Z,88.77
2018-04-27T00:14:16.408Z,88.10
2018-04-27T00:16:44.800Z,87.94
2018-04-27T00:19:13.159Z,88.02
2018-04-27T00:21:41.539Z,88.75
2018-04-27T00:24:09.928Z,88.47
2018-04-27T00:26:38.364Z,88.68
2018-04-27T00:29:06.749Z,89.26
2018-04-27T00:31:35.122Z,89.39
2018-04-27T00:34:03.546Z,88.90
2018-04-27T00:36:31.908Z,89.05
2018-04-27T00:39:01.056Z,88.74
2018-04-27T00:41:29.429Z,88.10
2018-04-27T00:43:57.811Z,88.36
2018-04-27T00:46:26.186Z,88.43
2018-04-27T00:48:54.572Z,88.41
2018-04-27T00:51:22.952Z,88.03
2018-04-27T00:53:51.309Z,87.64
2018-04-27T00:56:20.462Z,87.77
2018-04-27T00:58:48.826Z,87.96
2018-04-27T01:01:17.201Z,88.18
2018-04-27T01:03:45.585Z,88.56
2018-04-27T01:06:14.055Z,88.70
2018-04-27T01:08:42.422Z,88.70
2018-04-27T01:11:11.548Z,89.49
2018-04-27T01:13:39.933Z,89.17
2018-04-27T01:16:08.314Z,89.37
2018-04-27T01:18:36.691Z,89.50
2018-04-27T01:21:05.055Z,89.86
2018-04-27T01:23:34.203Z,89.86
2018-04-27T01:26:02.562Z,89.42
2018-04-27T01:28:30.949Z,89.55
2018-04-27T01:30:59.341Z,89.79
2018-04-27T01:33:27.986Z,89.76
2018-04-27T01:35:57.142Z,89.92
2018-04-27T01:38:25.507Z,90.29
2018-04-27T01:40:53.898Z,90.24
2018-04-27T01:43:22.274Z,90.40
2018-04-27T01:45:50.698Z,90.41
2018-04-27T01:48:19.076Z,90.55
2018-04-27T01:50:47.444Z,90.31
2018-04-27T01:53:15.839Z,90.50
2018-04-27T01:55:44.224Z,90.90
2018-04-27T01:58:12.613Z,90.92
2018-04-27T02:00:41.015Z,91.06
2018-04-27T02:03:10.153Z,91.01
2018-04-27T02:05:38.529Z,91.45
2018-04-27T02:08:06.969Z,91.21
2018-04-27T02:10:35.393Z,91.46
2018-04-27T02:13:03.778Z,91.55
2018-04-27T02:15:32.157Z,90.80
2018-04-27T02:18:00.518Z,90.61
2018-04-27T02:20:29.655Z,90.52
2018-04-27T02:22:58.045Z,90.66
2018-04-27T02:25:26.410Z,90.47
2018-04-27T02:27:54.785Z,90.61
2018-04-27T02:30:23.151Z,90.67
2018-04-27T02:32:52.427Z,90.16
2018-04-27T02:35:20.800Z,90.17
2018-04-27T02:37:49.222Z,90.32
2018-04-27T02:40:18.354Z,89.76
2018-04-27T02:42:46.825Z,89.78
2018-04-27T02:45:15.264Z,89.84
2018-04-27T02:47:43.645Z,89.74
2018-04-27T02:50:12.053Z,89.77
2018-04-27T02:52:41.216Z,89.75
2018-04-27T02:55:09.592Z,89.82
2018-04-27T02:57:37.963Z,89.71
2018-04-27T03:00:06.330Z,89.52
2018-04-27T03:02:34.693Z,90.22
2018-04-27T03:05:03.066Z,90.13
2018-04-27T03:07:32.197Z,90.04
2018-04-27T03:10:00.587Z,90.00
2018-04-27T03:12:28.959Z,90.19
2018-04-27T03:14:57.331Z,90.35
2018-04-27T03:17:25.725Z,90.11
2018-04-27T03:19:54.142Z,89.47
2018-04-27T03:22:22.515Z,89.43
2018-04-27T03:24:50.880Z,89.30
2018-04-27T03:27:19.257Z,89.77
2018-04-27T03:29:47.685Z,89.95
2018-04-27T03:32:16.073Z,89.82
2018-04-27T03:34:44.517Z,90.21
2018-04-27T03:37:12.914Z,89.84
2018-04-27T03:39:42.044Z,89.98
2018-04-27T03:42:10.403Z,89.18
2018-04-27T03:44:39.531Z,88.98
2018-04-27T03:47:07.902Z,89.23
2018-04-27T03:49:36.300Z,89.25
2018-04-27T03:52:05.436Z,89.22
2018-04-27T03:54:33.826Z,89.72
2018-04-27T03:57:02.214Z,90.07
2018-04-27T03:59:48.468Z,89.90
2018-04-27T04:02:35.139Z,89.59
2018-04-27T04:05:18.194Z,89.65
2018-04-27T04:07:46.568Z,89.56
2018-04-27T04:10:15.796Z,89.07
2018-04-27T04:12:44.165Z,88.71
2018-04-27T04:15:12.557Z,89.39
2018-04-27T04:17:41.002Z,89.60
2018-04-27T04:20:09.397Z,89.37
2018-04-27T04:22:38.560Z,89.12
2018-04-27T04:25:06.954Z,89.01
2018-04-27T04:27:35.327Z,89.06
2018-04-27T04:30:03.691Z,89.29
2018-04-27T04:32:32.057Z,89.25
2018-04-27T04:35:00.434Z,88.76
2018-04-27T04:37:28.842Z,88.62
2018-04-27T04:39:57.213Z,88.91
2018-04-27T04:42:25.586Z,88.27
2018-04-27T04:44:53.954Z,87.45
2018-04-27T04:47:22.337Z,87.54
2018-04-27T04:49:51.481Z,87.32
2018-04-27T04:52:19.900Z,87.24
2018-04-27T04:54:49.148Z,87.57
2018-04-27T04:57:17.542Z,87.26
2018-04-27T04:59:46.025Z,87.04
2018-04-27T05:02:14.393Z,87.55
2018-04-27T05:04:42.793Z,87.12
2018-04-27T05:07:11.153Z,87.30
2018-04-27T05:09:40.357Z,86.62
2018-04-27T05:12:08.736Z,86.42
2018-04-27T05:14:37.151Z,85.49
2018-04-27T05:17:05.517Z,85.69
2018-04-27T05:19:33.882Z,83.51
2018-04-27T05:22:02.370Z,82.66
2018-04-27T05:24:30.783Z,82.58
2018-04-27T05:26:59.237Z,81.46
2018-04-27T05:29:27.620Z,79.54
2018-04-27T05:31:56.020Z,78.83
2018-04-27T05:34:24.397Z,77.51
2018-04-27T05:36:53.573Z,78.83
2018-04-27T05:39:22.060Z,77.80
2018-04-27T05:41:51.190Z,78.70
2018-04-27T05:44:19.567Z,77.19
2018-04-27T05:46:47.953Z,76.20
2018-04-27T05:49:16.345Z,73.93
2018-04-27T05:51:44.701Z,73.51
2018-04-27T05:54:13.809Z,72.97
2018-04-27T05:56:42.191Z,72.33
2018-04-27T05:59:10.567Z,71.92
2018-04-27T06:01:38.933Z,72.87
2018-04-27T06:04:14.765Z,73.23
2018-04-27T06:06:43.921Z,71.93
2018-04-27T06:09:12.278Z,72.58
2018-04-27T06:11:40.650Z,72.25
2018-04-27T06:14:09.034Z,71.07
2018-04-27T06:16:37.424Z,70.25
2018-04-27T06:19:05.831Z,69.39
2018-04-27T06:21:34.209Z,68.56
2018-04-27T06:24:02.590Z,66.57
2018-04-27T06:26:30.973Z,67.22
2018-04-27T06:28:59.393Z,66.82
2018-04-27T06:31:27.880Z,66.06
2018-04-27T06:33:56.338Z,64.95
2018-04-27T06:36:24.711Z,61.61
2018-04-27T06:38:53.094Z,60.96
2018-04-27T06:41:21.517Z,60.27
2018-04-27T06:43:49.914Z,60.54
2018-04-27T06:46:18.290Z,58.03
2018-04-27T06:48:46.702Z,58.55
2018-04-27T06:51:17.861Z,58.80
2018-04-27T06:53:46.278Z,57.95
2018-04-27T06:56:14.638Z,58.76
2018-04-27T06:58:43.022Z,57.61
2018-04-27T07:01:11.430Z,56.85
2018-04-27T07:03:40.724Z,55.82
2018-04-27T07:06:09.120Z,57.17
2018-04-27T07:08:37.480Z,55.35
2018-04-27T07:11:05.886Z,53.55
2018-04-27T07:13:34.265Z,54.14
2018-04-27T07:16:03.848Z,53.25
2018-04-27T07:18:32.234Z,53.57
2018-04-27T07:21:00.618Z,53.96
2018-04-27T07:23:28.989Z,52.30
2018-04-27T07:25:57.444Z,52.12
2018-04-27T07:28:25.849Z,53.64
2018-04-27T07:30:54.219Z,51.99
2018-04-27T07:33:23.419Z,51.97
2018-04-27T07:35:52.570Z,53.87
2018-04-27T07:38:21.025Z,52.19
2018-04-27T07:40:49.391Z,51.37
2018-04-27T07:43:18.521Z,52.53
2018-04-27T07:45:46.878Z,49.08
2018-04-27T07:48:16.049Z,49.48
2018-04-27T07:50:44.509Z,48.67
2018-04-27T07:53:12.961Z,48.67
2018-04-27T07:55:41.338Z,45.76
2018-04-27T07:58:09.700Z,46.26
2018-04-27T08:00:38.864Z,46.16
2018-04-27T08:03:07.990Z,43.63
2018-04-27T08:05:36.354Z,43.59
2018-04-27T08:08:04.709Z,43.23
2018-04-27T08:10:33.068Z,44.51
2018-04-27T08:13:01.418Z,46.37
2018-04-27T08:15:29.789Z,45.28
2018-04-27T08:17:58.950Z,44.50
2018-04-27T08:20:28.905Z,44.96
2018-04-27T08:22:58.983Z,45.57
2018-04-27T08:25:29.980Z,46.09
2018-04-27T08:27:58.344Z,45.10
2018-04-27T08:30:26.716Z,44.20
2018-04-27T08:32:55.861Z,45.55
2018-04-27T08:35:25.002Z,45.60
2018-04-27T08:37:53.405Z,44.84
2018-04-27T08:40:21.780Z,44.25
2018-04-27T08:42:50.171Z,44.29
2018-04-27T08:45:18.574Z,44.47
2018-04-27T08:47:47.063Z,42.40
2018-04-27T08:50:15.507Z,43.41
2018-04-27T08:52:43.805Z,41.38
2018-04-27T08:55:12.205Z,38.34
2018-04-27T08:57:40.642Z,39.53
2018-04-27T09:00:09.023Z,41.37
2018-04-27T09:02:37.401Z,38.27
2018-04-27T09:05:05.765Z,39.51
2018-04-27T09:07:34.926Z,38.83
2018-04-27T09:10:03.338Z,37.48
2018-04-27T09:12:31.862Z,40.63
2018-04-27T09:15:00.254Z,37.18
2018-04-27T09:17:28.623Z,37.92
2018-04-27T09:19:57.032Z,37.26
2018-04-27T09:22:25.435Z,37.62
2018-04-27T09:24:53.820Z,36.62
2018-04-27T09:27:22.259Z,37.07
2018-04-27T09:29:50.634Z,38.14
2018-04-27T09:32:19.048Z,35.50
2018-04-27T09:34:47.468Z,36.47
2018-04-27T09:37:15.875Z,35.26
2018-04-27T09:39:45.041Z,33.06
2018-04-27T09:42:13.502Z,32.98
2018-04-27T09:44:41.891Z,33.39
2018-04-27T09:47:10.302Z,32.90
2018-04-27T09:49:39.453Z,31.64
2018-04-27T09:52:07.833Z,34.47
2018-04-27T09:54:36.234Z,35.82
2018-04-27T09:57:04.628Z,35.30
2018-04-27T09:59:33.002Z,34.38
2018-04-27T10:02:01.391Z,34.33
2018-04-27T10:04:29.752Z,32.26
2018-04-27T10:06:58.156Z,33.36
2018-04-27T10:09:26.532Z,33.10
2018-04-27T10:11:54.934Z,31.50
2018-04-27T10:14:24.133Z,32.80
2018-04-27T10:16:53.289Z,31.00
2018-04-27T10:19:21.693Z,30.10
2018-04-27T10:21:50.071Z,31.21
2018-04-27T10:24:18.473Z,29.96
2018-04-27T10:26:46.832Z,30.90
2018-04-27T10:29:15.265Z,33.81
2018-04-27T10:31:43.658Z,31.99
2018-04-27T10:34:12.042Z,32.46
2018-04-27T10:36:40.417Z,34.10
2018-04-27T10:39:08.805Z,31.74
2018-04-27T10:41:37.205Z,30.89
2018-04-27T10:44:06.345Z,31.93
2018-04-27T10:46:34.707Z,32.09
2018-04-27T10:49:03.073Z,35.38
2018-04-27T10:51:32.190Z,33.21
2018-04-27T10:54:00.571Z,34.19
2018-04-27T10:56:28.977Z,32.42
2018-04-27T10:58:57.354Z,31.96
2018-04-27T11:01:25.769Z,33.97
2018-04-27T11:03:54.115Z,35.50
2018-04-27T11:06:22.480Z,32.23
2018-04-27T11:08:50.845Z,33.46
2018-04-27T11:11:19.992Z,32.09
2018-04-27T11:13:48.426Z,32.27
2018-04-27T11:16:18.087Z,33.40
2018-04-27T11:18:46.317Z,32.07
2018-04-27T11:21:14.691Z,30.34
2018-04-27T11:23:43.073Z,30.81
2018-04-27T11:26:11.431Z,31.34
2018-04-27T11:28:39.963Z,31.03
2018-04-27T11:31:08.535Z,30.78
2018-04-27T11:33:36.918Z,29.98
2018-04-27T11:36:05.306Z,30.46
2018-04-27T11:38:33.688Z,31.10
2018-04-27T11:41:02.065Z,29.42
2018-04-27T11:43:30.478Z,29.67
2018-04-27T11:45:58.835Z,29.04
2018-04-27T11:48:27.973Z,30.55
2018-04-27T11:50:56.371Z,29.47
2018-04-27T11:53:24.769Z,30.38
2018-04-27T11:55:53.167Z,28.77
2018-04-27T11:58:23.275Z,27.40
2018-04-27T12:00:52.572Z,28.69
2018-04-27T12:03:20.975Z,27.82
2018-04-27T12:05:49.601Z,29.05
2018-04-27T12:08:18.000Z,26.99
2018-04-27T12:10:46.386Z,27.83
2018-04-27T12:13:15.533Z,28.44
2018-04-27T12:15:43.926Z,28.86
2018-04-27T12:18:12.354Z,27.74
2018-04-27T12:20:40.751Z,29.13
2018-04-27T12:23:09.143Z,27.05
2018-04-27T12:25:37.531Z,30.22
2018-04-27T12:28:06.059Z,29.55
2018-04-27T12:30:34.459Z,28.26
2018-04-27T12:33:03.617Z,28.72
2018-04-27T12:35:32.018Z,29.27
2018-04-27T12:38:00.392Z,29.25
2018-04-27T12:40:28.750Z,30.15
2018-04-27T12:42:57.114Z,31.12
2018-04-27T12:45:25.501Z,28.86
2018-04-27T12:47:53.989Z,30.56
2018-04-27T12:50:22.399Z,30.09
2018-04-27T12:52:50.773Z,30.23
2018-04-27T12:55:19.225Z,32.06
2018-04-27T12:57:47.619Z,29.79
2018-04-27T13:00:16.017Z,29.93
2018-04-27T13:02:44.386Z,31.22
2018-04-27T13:05:12.845Z,29.81
2018-04-27T13:07:41.218Z,28.80
2018-04-27T13:10:10.383Z,28.50
2018-04-27T13:12:38.741Z,28.54
2018-04-27T13:15:07.107Z,29.56
2018-04-27T13:17:35.498Z,29.17
2018-04-27T13:20:03.882Z,29.42
2018-04-27T13:22:32.354Z,29.13
2018-04-27T13:25:00.750Z,29.32
2018-04-27T13:27:29.977Z,28.82
2018-04-27T13:29:58.340Z,28.39
2018-04-27T13:32:26.710Z,31.18
2018-04-27T13:34:55.534Z,29.21
2018-04-27T13:37:23.901Z,28.45
2018-04-27T13:39:52.305Z,27.21
2018-04-27T13:42:20.732Z,25.92
2018-04-27T13:44:49.899Z,26.80
2018-04-27T13:47:18.300Z,26.75
2018-04-27T13:49:46.725Z,26.48
2018-04-27T13:52:15.114Z,27.30
2018-04-27T13:54:43.515Z,28.13
2018-04-27T13:57:11.979Z,26.59
2018-04-27T13:59:40.392Z,26.37
2018-04-27T14:02:08.750Z,25.18
2018-04-27T14:04:37.157Z,27.22
2018-04-27T14:07:06.341Z,26.03
2018-04-27T14:09:34.773Z,24.83
2018-04-27T14:12:03.185Z,24.99
2018-04-27T14:14:31.575Z,25.18
2018-04-27T14:17:00.008Z,25.25
2018-04-27T14:19:28.383Z,24.42
2018-04-27T14:21:56.789Z,23.91
2018-04-27T14:24:25.227Z,25.08
2018-04-27T14:26:54.394Z,23.82
2018-04-27T14:29:22.765Z,23.80
2018-04-27T14:31:51.178Z,23.87
2018-04-27T14:34:19.815Z,25.19
2018-04-27T14:36:48.225Z,24.98
2018-04-27T14:39:17.440Z,24.34
2018-04-27T14:41:46.605Z,24.90
2018-04-27T14:44:14.988Z,25.65
2018-04-27T14:46:43.357Z,25.09
2018-04-27T14:49:11.758Z,24.33
2018-04-27T14:51:40.143Z,24.87
2018-04-27T14:54:08.538Z,25.02
2018-04-27T14:56:36.929Z,24.99
2018-04-27T14:59:06.103Z,26.20
2018-04-27T15:01:34.515Z,25.98
2018-04-27T15:04:03.687Z,26.41
2018-04-27T15:06:32.081Z,25.92
2018-04-27T15:09:01.537Z,25.14
2018-04-27T15:11:29.917Z,25.49
2018-04-27T15:13:58.283Z,25.86
2018-04-27T15:16:27.457Z,26.27
2018-04-27T15:18:55.878Z,26.21
2018-04-27T15:21:24.270Z,24.59
2018-04-27T15:23:52.649Z,24.99
2018-04-27T15:26:21.065Z,26.59
2018-04-27T15:28:49.454Z,26.25
2018-04-27T15:31:17.879Z,27.82
2018-04-27T15:33:47.109Z,28.54
2018-04-27T15:36:15.398Z,29.46
2018-04-27T15:38:43.763Z,29.39
2018-04-27T15:41:12.140Z,31.09
2018-04-27T15:43:40.508Z,30.51
2018-04-27T15:46:09.656Z,30.13
2018-04-27T15:48:38.084Z,29.92
2018-04-27T15:51:06.622Z,30.10
2018-04-27T15:53:34.999Z,30.06
2018-04-27T15:56:03.440Z,30.28
2018-04-27T15:58:32.593Z,31.39
2018-04-27T16:01:00.981Z,31.47
2018-04-27T16:03:29.341Z,30.92
2018-04-27T16:05:57.721Z,31.53
2018-04-27T16:08:26.270Z,31.54
2018-04-27T16:10:54.673Z,31.40
2018-04-27T16:16:19.174Z,29.44
2018-04-27T16:18:48.302Z,28.78
2018-04-27T16:21:16.737Z,29.37
2018-04-27T16:23:46.969Z,29.59
2018-04-27T16:26:17.826Z,28.30
2018-04-27T16:28:46.992Z,29.29
2018-04-27T16:31:16.113Z,29.84
2018-04-27T16:33:45.287Z,30.85
2018-04-27T16:36:13.702Z,31.46
2018-04-27T16:38:42.830Z,32.01
2018-04-27T16:41:11.243Z,32.92
2018-04-27T16:43:39.656Z,33.57
2018-04-27T16:46:08.087Z,33.88
2018-04-27T16:48:36.444Z,34.18
2018-04-27T16:51:04.821Z,34.39
2018-04-27T16:53:34.008Z,35.39
2018-04-27T16:56:02.467Z,35.14
2018-04-27T16:58:31.605Z,35.34
2018-04-27T17:01:00.767Z,35.98
2018-04-27T17:03:29.146Z,36.66
2018-04-27T17:05:58.310Z,36.62
2018-04-27T17:08:26.723Z,36.93
2018-04-27T17:10:55.873Z,37.16
2018-04-27T17:13:25.011Z,36.92
2018-04-27T17:15:53.385Z,37.08
2018-04-27T17:18:21.766Z,36.33
2018-04-27T17:20:50.185Z,35.81
2018-04-27T17:23:18.592Z,36.40
2018-04-27T17:25:46.983Z,36.43
2018-04-27T17:28:15.355Z,36.07
2018-04-27T17:30:43.768Z,35.22
2018-04-27T17:33:13.625Z,36.31
2018-04-27T17:35:42.050Z,35.50
2018-04-27T17:38:11.232Z,35.87
2018-04-27T17:40:39.630Z,35.44
2018-04-27T17:43:08.014Z,34.86
2018-04-27T17:45:36.466Z,35.53
2018-04-27T17:48:04.924Z,35.35
2018-04-27T17:50:33.286Z,34.96
2018-04-27T17:53:02.569Z,36.06
2018-04-27T17:55:30.942Z,35.63
2018-04-27T17:57:59.336Z,34.87
2018-04-27T18:00:27.762Z,36.03
2018-04-27T18:02:56.277Z,36.63
2018-04-27T18:05:24.677Z,36.04
2018-04-27T18:07:53.057Z,36.98
2018-04-27T18:10:21.436Z,36.28
2018-04-27T18:12:49.816Z,36.47
2018-04-27T18:15:18.234Z,37.36
2018-04-27T18:17:47.444Z,37.18
2018-04-27T18:20:16.642Z,37.14
2018-04-27T18:22:45.786Z,37.55
2018-04-27T18:25:14.156Z,38.22
2018-04-27T18:27:42.562Z,38.77
2018-04-27T18:30:10.900Z,39.67
2018-04-27T18:32:39.389Z,39.70
2018-04-27T18:35:07.778Z,39.99
2018-04-27T18:37:36.187Z,40.65
2018-04-27T18:40:04.853Z,40.10
2018-04-27T18:42:33.338Z,40.71
2018-04-27T18:45:01.663Z,41.06
2018-04-27T18:47:30.818Z,40.32
2018-04-27T18:49:59.199Z,40.57
2018-04-27T18:52:28.498Z,40.17
2018-04-27T18:54:57.028Z,40.49
2018-04-27T18:57:25.906Z,39.85
2018-04-27T18:59:54.305Z,39.88
2018-04-27T19:02:22.696Z,39.38
2018-04-27T19:04:51.099Z,39.58
2018-04-27T19:07:20.265Z,39.64
2018-04-27T19:09:48.689Z,39.17
2018-04-27T19:12:17.069Z,39.73
2018-04-27T19:14:46.245Z,40.56
2018-04-27T19:17:14.627Z,41.80
2018-04-27T19:19:43.894Z,40.79
2018-04-27T19:22:13.222Z,40.48
2018-04-27T19:24:44.364Z,41.46
2018-04-27T19:27:12.749Z,41.44
2018-04-27T19:29:41.138Z,40.50
2018-04-27T19:32:09.517Z,40.81
2018-04-27T19:34:37.943Z,41.08
2018-04-27T19:37:07.188Z,41.15
2018-04-27T19:39:35.641Z,41.67
2018-04-27T19:42:04.809Z,41.50
2018-04-27T19:44:33.982Z,40.81
2018-04-27T19:47:02.413Z,41.63
2018-04-27T19:49:31.141Z,41.06
2018-04-27T19:51:59.549Z,40.97
2018-04-27T19:54:27.955Z,40.88
2018-04-27T19:56:59.085Z,40.73
2018-04-27T19:59:27.499Z,41.21
2018-04-27T20:01:55.971Z,41.32
2018-04-27T20:04:24.568Z,41.16
2018-04-27T20:06:52.952Z,41.09
2018-04-27T20:09:21.365Z,41.57
2018-04-27T20:11:50.650Z,41.78
2018-04-27T20:14:43.757Z,42.25
2018-04-27T20:17:12.901Z,41.94
2018-04-27T20:19:42.194Z,42.06
2018-04-27T20:22:21.708Z,43.05
2018-04-27T20:24:50.069Z,42.63
2018-04-27T20:27:19.333Z,42.93
2018-04-27T20:29:48.764Z,43.07
2018-04-27T20:32:17.202Z,42.91
2018-04-27T20:34:45.607Z,43.48
2018-04-27T20:37:14.900Z,43.92
2018-04-27T20:39:43.227Z,44.36
2018-04-27T20:42:11.649Z,45.33
2018-04-27T20:44:40.038Z,46.16
2018-04-27T20:47:09.351Z,46.55
2018-04-27T20:49:37.768Z,45.05
2018-04-27T20:52:06.153Z,45.26
2018-04-27T20:54:36.115Z,46.06
2018-04-27T20:57:05.299Z,47.03
2018-04-27T20:59:33.694Z,47.68
2018-04-27T21:02:02.254Z,47.91
2018-04-27T21:04:30.628Z,47.84
2018-04-27T21:07:00.757Z,48.51
2018-04-27T21:09:29.146Z,48.08
2018-04-27T21:11:57.525Z,47.66
2018-04-27T21:14:26.259Z,47.42
2018-04-27T21:16:54.637Z,46.89
2018-04-27T21:19:22.999Z,47.20
2018-04-27T21:21:51.367Z,46.65
2018-04-27T21:24:19.769Z,46.24
2018-04-27T21:26:48.162Z,46.70
2018-04-27T21:29:19.163Z,47.49
2018-04-27T21:31:47.546Z,46.86
2018-04-27T21:34:15.933Z,47.10
2018-04-27T21:36:50.707Z,46.96
2018-04-27T21:39:33.433Z,47.54
2018-04-27T21:42:13.143Z,47.28
2018-04-27T21:44:43.388Z,47.44
2018-04-27T21:50:18.915Z,47.26
2018-04-27T21:52:50.418Z,47.71
2018-04-27T21:55:19.596Z,47.66
2018-04-27T21:57:51.358Z,47.62
2018-04-27T22:00:23.593Z,48.42
2018-04-27T22:06:01.185Z,49.07
2018-04-27T22:08:53.802Z,48.97
2018-04-27T22:11:31.375Z,48.96
2018-04-27T22:13:59.766Z,49.65
2018-04-27T22:16:41.551Z,49.26
2018-04-27T22:19:14.660Z,49.16
2018-04-27T22:21:43.052Z,49.83
2018-04-27T22:24:12.856Z,50.67
2018-04-27T22:26:41.830Z,50.59
2018-04-27T22:29:37.362Z,51.48
2018-04-27T22:32:06.487Z,51.34
2018-04-27T22:34:45.714Z,51.31
2018-04-27T22:37:14.128Z,51.91
2018-04-27T22:40:12.822Z,51.80
2018-04-27T22:42:45.509Z,51.85
2018-04-27T22:45:18.125Z,51.92
2018-04-27T22:51:23.395Z,52.72
2018-04-27T22:53:53.274Z,53.07
2018-04-27T22:56:54.014Z,52.04
2018-04-27T22:59:33.099Z,52.87
2018-04-27T23:05:03.244Z,52.48
2018-04-27T23:10:29.626Z,52.78
2018-04-27T23:13:07.872Z,53.00
2018-04-27T23:15:45.792Z,52.76
2018-04-27T23:18:15.709Z,52.70
2018-04-27T23:20:47.844Z,52.69
2018-04-27T23:23:16.357Z,52.71
2018-04-27T23:25:48.457Z,53.19
2018-04-27T23:28:17.534Z,53.17
2018-04-27T23:30:48.679Z,53.17
2018-04-27T23:33:17.054Z,53.09
2018-04-27T23:35:53.901Z,53.04
2018-04-27T23:38:23.704Z,52.76
2018-04-27T23:40:57.289Z,53.32
2018-04-27T23:43:26.449Z,53.20
2018-04-27T23:45:54.838Z,52.91
2018-04-27T23:48:23.207Z,52.91
2018-04-27T23:50:54.349Z,52.92
2018-04-27T23:53:22.880Z,52.60
2018-04-27T23:55:51.269Z,52.71
2018-04-27T23:58:24.010Z,52.97
